Time;durP1;ratioP1;P1;durP2;ratioP2;P2;SDS_P1;SDS_P2;PMS_P1;PMS_P2;Temp;Humidity;BMP_temperature;BMP_pressure;BME280_temperature;BME280_humidity;BME280_pressure;Samples;Min_cycle;Max_cycle;Signal;HPM_P1;HPM_P2
2021/01/02 00:00:45;;;;;;;0.13;0.10;;;4.80;94.30;;;;;;5100244;28;20047;-72
2021/01/02 00:03:58;;;;;;;0.30;0.20;;;4.70;93.60;;;;;;5099868;28;20380;-72
2021/01/02 00:06:26;;;;;;;1.38;0.50;;;4.60;95.30;;;;;;5100208;28;20024;-72
2021/01/02 00:09:05;;;;;;;0.77;0.30;;;4.50;96.40;;;;;;5100111;28;20074;-72
2021/01/02 00:11:50;;;;;;;1.85;0.28;;;4.50;96.50;;;;;;5100392;28;20030;-72
2021/01/02 00:14:37;;;;;;;4.68;0.30;;;4.50;96.70;;;;;;5099727;28;20016;-72
2021/01/02 00:17:39;;;;;;;0.45;0.20;;;4.50;96.50;;;;;;5099855;28;20027;-72
2021/01/02 00:20:12;;;;;;;0.10;0.10;;;4.40;96.60;;;;;;5099909;28;20302;-72
2021/01/02 00:22:55;;;;;;;0.10;0.10;;;4.40;96.80;;;;;;5099739;28;20109;-72
2021/01/02 00:25:23;;;;;;;0.47;0.20;;;4.40;96.30;;;;;;5099662;28;20040;-72
2021/01/02 00:28:10;;;;;;;1.25;0.30;;;4.40;96.60;;;;;;5099461;28;20102;-72
2021/01/02 00:30:51;;;;;;;0.93;0.15;;;4.50;96.60;;;;;;5099656;28;20066;-72
2021/01/02 00:33:20;;;;;;;2.72;0.30;;;4.50;96.30;;;;;;5099314;28;20024;-72
2021/01/02 00:35:48;;;;;;;0.40;0.20;;;4.60;96.30;;;;;;5099536;28;20503;-72
2021/01/02 00:38:19;;;;;;;1.27;0.30;;;4.60;96.10;;;;;;5099470;28;20135;-72
2021/01/02 00:40:45;;;;;;;2.30;0.20;;;4.70;96.50;;;;;;5099525;28;20055;-72
2021/01/02 00:43:10;;;;;;;1.00;0.35;;;4.70;96.60;;;;;;5099167;28;20017;-72
2021/01/02 00:45:36;;;;;;;1.85;0.30;;;4.70;96.50;;;;;;5099387;28;20054;-72
2021/01/02 00:48:04;;;;;;;1.02;0.30;;;4.70;96.10;;;;;;5098531;28;20024;-72
2021/01/02 00:50:30;;;;;;;2.28;0.32;;;4.80;96.10;;;;;;5098535;28;20032;-72
2021/01/02 00:53:22;;;;;;;0.93;0.30;;;4.80;96.00;;;;;;5099015;28;20035;-72
2021/01/02 00:55:58;;;;;;;1.08;0.30;;;4.80;95.90;;;;;;5098996;28;20035;-72
2021/01/02 00:58:50;;;;;;;0.50;0.30;;;4.90;95.70;;;;;;5099055;28;20047;-72
2021/01/02 01:01:25;;;;;;;2.33;0.40;;;4.90;95.20;;;;;;5080915;28;20031;-72
2021/01/02 01:04:12;;;;;;;1.02;0.73;;;4.90;93.80;;;;;;5098999;28;20016;-72
2021/01/02 01:06:42;;;;;;;1.55;0.38;;;5.00;93.30;;;;;;5098741;28;20028;-72
2021/01/02 01:09:13;;;;;;;2.28;0.40;;;5.00;91.90;;;;;;5098654;28;20451;-72
2021/01/02 01:11:45;;;;;;;1.75;0.40;;;5.00;92.40;;;;;;5098719;28;20038;-72
2021/01/02 01:14:11;;;;;;;2.00;0.40;;;5.00;93.30;;;;;;5098764;28;20026;-72
2021/01/02 01:16:43;;;;;;;2.30;0.38;;;5.00;93.30;;;;;;5098489;28;20027;-72
2021/01/02 01:19:15;;;;;;;2.15;0.50;;;5.00;92.60;;;;;;5098578;28;20044;-72
2021/01/02 01:21:44;;;;;;;3.72;0.80;;;5.10;92.60;;;;;;5080486;28;20020;-72
2021/01/02 01:24:36;;;;;;;3.80;0.60;;;5.10;91.80;;;;;;5080607;28;20059;-72
2021/01/02 01:27:07;;;;;;;2.20;0.50;;;5.20;93.30;;;;;;5080378;28;20039;-72
2021/01/02 01:29:48;;;;;;;2.83;0.50;;;5.20;90.70;;;;;;5098288;28;20028;-72
2021/01/02 01:32:23;;;;;;;2.40;0.60;;;5.30;88.80;;;;;;5098450;28;20039;-72
2021/01/02 01:34:59;;;;;;;0.98;0.30;;;5.30;90.80;;;;;;5098247;28;20416;-72
2021/01/02 01:37:32;;;;;;;1.85;0.50;;;5.30;90.10;;;;;;5080235;28;20024;-72
2021/01/02 01:39:59;;;;;;;4.80;0.60;;;5.30;92.10;;;;;;5098092;28;20016;-72
2021/01/02 01:42:41;;;;;;;3.00;0.65;;;5.20;91.30;;;;;;5098275;28;20020;-72
2021/01/02 01:45:13;;;;;;;1.95;0.73;;;5.20;92.10;;;;;;5098226;28;20016;-72
2021/01/02 01:47:42;;;;;;;2.70;0.60;;;5.10;91.90;;;;;;5097991;28;20035;-72
2021/01/02 01:50:25;;;;;;;2.90;0.60;;;5.10;92.30;;;;;;5079730;28;20402;-72
2021/01/02 01:52:50;;;;;;;3.50;0.40;;;5.10;89.80;;;;;;5097715;28;20031;-72
2021/01/02 01:55:29;;;;;;;4.50;0.50;;;5.20;92.00;;;;;;5097704;28;20119;-72
2021/01/02 01:58:11;;;;;;;1.67;0.50;;;5.10;91.80;;;;;;5097885;28;20039;-72
2021/01/02 02:00:50;;;;;;;2.42;1.05;;;5.10;92.20;;;;;;5097637;28;20021;-71
2021/01/02 02:03:23;;;;;;;5.10;0.80;;;5.10;90.30;;;;;;5097673;28;20031;-71
2021/01/02 02:05:52;;;;;;;1.80;0.47;;;5.10;91.00;;;;;;5097844;28;20024;-71
2021/01/02 02:08:40;;;;;;;2.72;0.40;;;5.10;91.40;;;;;;5079558;28;20114;-71
2021/01/02 02:11:07;;;;;;;2.13;0.50;;;5.10;90.90;;;;;;5097681;28;20028;-71
2021/01/02 02:13:43;;;;;;;2.85;0.70;;;5.10;90.50;;;;;;5097734;28;20032;-71
2021/01/02 02:16:10;;;;;;;;;;;5.10;91.30;;;;;;5097837;28;20027;-71
2021/01/02 02:18:43;;;;;;;2.38;0.40;;;5.00;91.60;;;;;;5097324;28;20219;-71
2021/01/02 02:21:11;;;;;;;4.03;0.60;;;5.00;92.00;;;;;;5079387;28;20024;-71
2021/01/02 02:23:41;;;;;;;4.00;0.50;;;5.00;92.10;;;;;;5097844;28;20047;-71
2021/01/02 02:26:31;;;;;;;1.67;0.68;;;5.00;92.60;;;;;;5097220;28;20111;-71
2021/01/02 02:28:57;;;;;;;1.67;0.60;;;5.00;93.10;;;;;;5097339;28;20016;-71
2021/01/02 02:31:25;;;;;;;1.48;0.50;;;4.90;92.80;;;;;;5097403;28;20105;-71
2021/01/02 02:33:56;;;;;;;5.05;0.57;;;4.90;92.80;;;;;;5097506;28;20444;-71
2021/01/02 02:36:23;;;;;;;3.38;0.60;;;5.00;92.60;;;;;;5096963;28;20020;-71
2021/01/02 02:38:49;;;;;;;5.30;1.02;;;5.00;92.90;;;;;;5097135;28;20070;-71
2021/01/02 02:41:16;;;;;;;3.53;0.60;;;5.00;92.10;;;;;;5079360;28;20020;-71
2021/01/02 02:43:42;;;;;;;3.10;0.40;;;5.00;92.00;;;;;;5097013;28;20012;-71
2021/01/02 02:46:16;;;;;;;1.23;0.50;;;5.00;91.60;;;;;;5097106;28;20070;-71
2021/01/02 02:48:44;;;;;;;3.67;0.60;;;5.10;92.10;;;;;;5096907;28;20040;-71
2021/01/02 02:51:13;;;;;;;4.05;0.55;;;5.20;93.00;;;;;;5079056;28;20032;-71
2021/01/02 02:53:39;;;;;;;6.57;1.85;;;5.20;93.10;;;;;;5097290;28;20039;-71
2021/01/02 02:56:04;;;;;;;3.88;0.95;;;5.10;92.10;;;;;;5096827;28;20039;-71
2021/01/02 02:58:30;;;;;;;2.08;0.65;;;5.20;91.60;;;;;;5096806;28;20032;-71
2021/01/02 03:00:56;;;;;;;1.65;0.57;;;5.20;90.50;;;;;;5096976;28;20031;-71
2021/01/02 03:03:22;;;;;;;3.50;0.40;;;5.30;88.40;;;;;;5096817;28;20115;-71
2021/01/02 03:05:52;;;;;;;1.92;0.57;;;5.50;88.80;;;;;;5078853;28;20024;-71
2021/01/02 03:08:18;;;;;;;2.90;0.50;;;5.50;88.90;;;;;;5096702;28;20039;-71
2021/01/02 03:10:45;;;;;;;2.17;0.50;;;5.50;89.50;;;;;;5096685;28;20032;-71
2021/01/02 03:13:11;;;;;;;0.63;0.40;;;5.40;91.00;;;;;;5100032;28;20040;-71
2021/01/02 03:15:41;;;;;;;2.17;0.60;;;5.30;92.50;;;;;;5082867;28;20055;-71
2021/01/02 03:18:07;;;;;;;2.38;0.70;;;5.20;92.20;;;;;;5101030;28;20074;-71
2021/01/02 03:20:34;;;;;;;1.60;0.52;;;5.10;92.90;;;;;;5101036;28;20027;-71
2021/01/02 03:23:00;;;;;;;3.38;0.70;;;4.80;94.20;;;;;;5100734;28;20024;-71
2021/01/02 03:25:25;;;;;;;3.83;0.82;;;4.50;95.50;;;;;;5100686;28;20043;-71
2021/01/02 03:27:55;;;;;;;3.63;0.88;;;4.30;96.30;;;;;;5100618;28;20024;-71
2021/01/02 03:30:22;;;;;;;1.15;0.30;;;4.30;96.50;;;;;;5100618;28;20028;-71
2021/01/02 03:32:48;;;;;;;3.72;0.52;;;4.40;96.70;;;;;;5101049;28;20312;-72
2021/01/02 03:35:15;;;;;;;3.97;0.80;;;4.40;96.30;;;;;;5100490;28;20074;-72
2021/01/02 03:37:44;;;;;;;4.10;0.80;;;4.40;96.10;;;;;;5100419;28;20038;-72
2021/01/02 03:40:11;;;;;;;1.65;1.45;;;4.60;95.90;;;;;;5100647;28;20358;-72
2021/01/02 03:42:44;;;;;;;1.45;0.90;;;4.70;94.90;;;;;;5100387;28;20020;-72
2021/01/02 03:45:12;;;;;;;3.05;0.90;;;4.60;94.20;;;;;;5100307;28;20035;-72
2021/01/02 03:47:38;;;;;;;2.00;0.90;;;4.50;94.70;;;;;;5100281;28;20052;-71
2021/01/02 03:50:06;;;;;;;1.20;0.60;;;4.50;95.10;;;;;;5100046;28;20495;-72
2021/01/02 03:52:35;;;;;;;2.65;0.70;;;4.50;95.10;;;;;;5100360;28;20350;-71
2021/01/02 03:55:00;;;;;;;1.73;0.52;;;4.50;94.60;;;;;;5100384;28;20047;-71
2021/01/02 03:57:26;;;;;;;1.30;0.65;;;4.60;94.30;;;;;;5100279;28;20059;-71
2021/01/02 03:59:52;;;;;;;1.42;0.40;;;4.60;94.20;;;;;;5100066;28;20027;-72
2021/01/02 04:02:17;;;;;;;3.97;0.63;;;4.50;94.20;;;;;;5100006;28;20031;-72
2021/01/02 04:04:43;;;;;;;1.00;0.50;;;4.40;94.10;;;;;;5099964;28;20023;-72
2021/01/02 04:07:08;;;;;;;1.55;0.60;;;4.40;93.90;;;;;;5081993;28;20357;-72
2021/01/02 04:09:34;;;;;;;4.38;0.60;;;4.40;93.90;;;;;;5099795;28;20115;-72
2021/01/02 04:12:00;;;;;;;0.80;0.35;;;4.40;94.50;;;;;;5100099;28;20024;-71
2021/01/02 04:14:25;;;;;;;3.10;0.85;;;4.30;94.50;;;;;;5099759;28;20032;-71
2021/01/02 04:16:51;;;;;;;3.92;0.60;;;4.30;93.80;;;;;;5099665;28;20446;-71
2021/01/02 04:19:17;;;;;;;2.42;0.45;;;4.30;93.50;;;;;;5099765;28;20124;-71
2021/01/02 04:21:46;;;;;;;1.10;0.40;;;4.30;93.40;;;;;;5099587;28;20024;-71
2021/01/02 04:24:12;;;;;;;1.00;0.40;;;4.30;93.20;;;;;;5099749;28;20055;-72
2021/01/02 04:26:39;;;;;;;0.43;0.30;;;4.30;93.40;;;;;;5099583;28;20415;-71
2021/01/02 04:29:05;;;;;;;1.55;0.35;;;4.30;93.40;;;;;;5099722;28;20101;-72
2021/01/02 04:31:41;;;;;;;1.20;0.35;;;4.20;94.10;;;;;;5081480;28;20412;-72
2021/01/02 04:34:07;;;;;;;;;;;4.20;95.40;;;;;;5081830;28;20031;-72
2021/01/02 04:36:34;;;;;;;1.45;0.35;;;4.20;95.80;;;;;;5099227;28;20296;-72
2021/01/02 04:39:00;;;;;;;1.17;0.40;;;4.20;96.10;;;;;;5099563;28;20027;-72
2021/01/02 04:41:26;;;;;;;0.68;0.35;;;4.20;95.70;;;;;;5099559;28;20024;-72
2021/01/02 04:43:53;;;;;;;0.38;0.20;;;4.30;95.80;;;;;;5099349;28;20024;-72
2021/01/02 04:46:21;;;;;;;0.77;0.20;;;4.30;95.80;;;;;;5081124;28;20301;-72
2021/01/02 04:48:48;;;;;;;1.10;0.38;;;4.40;96.00;;;;;;5098919;28;20040;-72
2021/01/02 04:51:14;;;;;;;1.48;0.40;;;4.40;96.30;;;;;;5099319;28;20077;-72
2021/01/02 04:53:41;;;;;;;1.02;0.30;;;4.40;96.30;;;;;;5081179;28;20028;-72
2021/01/02 04:56:07;;;;;;;2.15;0.35;;;4.40;96.50;;;;;;5098907;28;20119;-72
2021/01/02 04:58:41;;;;;;;2.70;0.57;;;4.40;96.30;;;;;;5098850;28;20020;-72
2021/01/02 05:01:09;;;;;;;2.20;0.35;;;4.40;96.40;;;;;;5081019;28;20020;-72
2021/01/02 05:03:35;;;;;;;2.55;0.30;;;4.50;96.30;;;;;;5080932;28;20324;-72
2021/01/02 05:06:04;;;;;;;1.05;0.30;;;4.40;94.40;;;;;;5098998;28;20028;-72
2021/01/02 05:08:30;;;;;;;0.47;0.20;;;4.50;93.10;;;;;;5098988;28;20172;-72
2021/01/02 05:11:01;;;;;;;2.22;0.20;;;4.50;92.90;;;;;;5098680;28;20028;-71
2021/01/02 05:13:35;;;;;;;0.60;0.13;;;4.50;92.40;;;;;;5098876;28;20293;-71
2021/01/02 05:16:23;;;;;;;0.93;0.20;;;4.50;92.00;;;;;;5098763;28;20047;-71
2021/01/02 05:18:52;;;;;;;0.35;0.10;;;4.60;91.50;;;;;;5098688;28;20362;-72
2021/01/02 05:21:17;;;;;;;0.73;0.15;;;4.60;91.30;;;;;;5098525;28;20028;-71
2021/01/02 05:24:01;;;;;;;1.55;0.20;;;4.70;90.40;;;;;;5080651;28;20020;-71
2021/01/02 05:26:27;;;;;;;0.10;0.10;;;4.80;89.70;;;;;;5080536;28;20170;-71
2021/01/02 05:29:13;;;;;;;0.55;0.17;;;4.80;89.40;;;;;;5098331;28;20066;-71
2021/01/02 05:31:40;;;;;;;0.30;0.10;;;4.90;88.50;;;;;;5098620;28;20293;-71
2021/01/02 05:34:08;;;;;;;0.17;0.10;;;5.00;88.70;;;;;;5098220;28;20020;-71
2021/01/02 05:36:34;;;;;;;0.10;0.10;;;5.00;88.30;;;;;;5097887;28;20047;-71
2021/01/02 05:39:00;;;;;;;0.10;0.10;;;5.00;88.80;;;;;;5098420;28;20396;-71
2021/01/02 05:41:27;;;;;;;0.10;0.10;;;5.10;88.40;;;;;;5098393;28;20024;-71
2021/01/02 05:44:09;;;;;;;0.70;0.20;;;5.10;89.10;;;;;;5098095;28;20027;-71
2021/01/02 05:46:43;;;;;;;0.30;0.17;;;5.10;89.30;;;;;;5098204;28;20028;-71
2021/01/02 05:49:27;;;;;;;0.10;0.10;;;5.10;89.20;;;;;;5097909;28;20131;-71
2021/01/02 05:51:56;;;;;;;0.10;0.10;;;5.10;89.40;;;;;;5098238;28;20082;-71
2021/01/02 05:54:25;;;;;;;0.45;0.20;;;5.10;88.90;;;;;;5080029;28;20070;-71
2021/01/02 05:56:54;;;;;;;0.10;0.10;;;5.10;89.20;;;;;;5079756;28;20035;-71
2021/01/02 05:59:34;;;;;;;0.22;0.10;;;5.10;88.80;;;;;;5098008;28;20040;-71
2021/01/02 06:02:24;;;;;;;0.45;0.20;;;5.20;88.80;;;;;;5097714;28;20024;-71
2021/01/02 06:04:59;;;;;;;0.45;0.20;;;5.20;88.60;;;;;;5097575;28;20023;-71
2021/01/02 06:07:26;;;;;;;1.30;0.22;;;5.20;88.80;;;;;;5097555;28;20036;-71
2021/01/02 06:09:52;;;;;;;1.92;0.40;;;5.30;89.00;;;;;;5097602;28;20028;-71
2021/01/02 06:12:39;;;;;;;0.50;0.28;;;5.40;88.80;;;;;;5097766;28;20118;-71
2021/01/02 06:15:06;;;;;;;;;;;5.50;89.20;;;;;;5097707;28;20024;-71
2021/01/02 06:17:36;;;;;;;4.13;1.10;;;5.50;88.80;;;;;;5097395;28;19908;-71
2021/01/02 06:20:08;;;;;;;1.73;0.40;;;5.60;88.90;;;;;;5097667;28;20024;-71
2021/01/02 06:22:37;;;;;;;2.50;0.70;;;5.60;90.30;;;;;;5097409;28;20073;-71
2021/01/02 06:25:05;;;;;;;1.33;0.40;;;5.60;91.20;;;;;;5097185;28;20032;-71
2021/01/02 06:27:32;;;;;;;3.25;0.50;;;5.50;91.90;;;;;;5097555;28;20115;-71
2021/01/02 06:30:00;;;;;;;4.03;0.60;;;5.50;91.70;;;;;;5097217;28;20027;-71
2021/01/02 06:32:27;;;;;;;3.60;0.50;;;5.50;92.20;;;;;;5097176;28;20023;-71
2021/01/02 06:35:08;;;;;;;3.40;0.50;;;5.50;92.20;;;;;;5097079;28;20020;-71
2021/01/02 06:38:00;;;;;;;2.15;0.30;;;5.50;90.30;;;;;;5097310;28;20040;-71
2021/01/02 06:40:27;;;;;;;3.28;1.30;;;5.60;89.10;;;;;;5074576;28;20404;-71
2021/01/02 06:42:54;;;;;;;2.85;0.70;;;5.60;89.20;;;;;;5096951;28;20150;-71
2021/01/02 06:45:35;;;;;;;2.28;0.30;;;5.60;89.00;;;;;;5097560;28;20012;-71
2021/01/02 06:48:15;;;;;;;7.25;0.77;;;5.60;89.00;;;;;;5096005;28;20039;-72
2021/01/02 06:50:48;;;;;;;3.88;0.70;;;5.60;90.40;;;;;;5079052;28;20031;-71
2021/01/02 06:53:36;;;;;;;2.60;0.70;;;5.60;92.70;;;;;;5097086;28;20115;-71
2021/01/02 06:56:06;;;;;;;5.05;0.80;;;5.50;93.40;;;;;;5097059;28;20511;-71
2021/01/02 06:58:36;;;;;;;1.35;0.93;;;5.20;93.40;;;;;;5096985;28;20374;-71
2021/01/02 07:01:07;;;;;;;1.35;0.57;;;5.10;94.30;;;;;;5096738;28;20016;-71
2021/01/02 07:03:42;;;;;;;2.13;0.90;;;5.00;94.60;;;;;;5097078;28;20020;-71
2021/01/02 07:06:24;;;;;;;2.97;0.57;;;4.90;94.50;;;;;;5096790;28;20362;-71
2021/01/02 07:08:50;;;;;;;5.35;0.80;;;4.90;95.50;;;;;;5096962;28;20028;-72
2021/01/02 07:11:20;;;;;;;4.38;1.45;;;4.90;95.50;;;;;;5097000;28;20107;-72
2021/01/02 07:13:45;;;;;;;2.47;0.73;;;4.80;95.70;;;;;;5097010;28;20043;-72
2021/01/02 07:16:31;;;;;;;3.10;1.00;;;4.80;95.50;;;;;;5096910;28;20339;-72
2021/01/02 07:18:57;;;;;;;5.60;0.77;;;4.70;95.10;;;;;;5096792;28;20111;-72
2021/01/02 07:21:32;;;;;;;4.15;0.70;;;4.80;94.80;;;;;;5096675;28;20070;-72
2021/01/02 07:24:21;;;;;;;2.30;0.50;;;4.80;93.90;;;;;;5096932;28;20111;-71
2021/01/02 07:26:48;;;;;;;2.50;0.70;;;4.90;94.30;;;;;;5096685;28;20020;-72
2021/01/02 07:29:20;;;;;;;2.42;0.40;;;4.90;94.90;;;;;;5096579;28;20095;-72
2021/01/02 07:31:46;;;;;;;1.55;0.47;;;4.90;94.70;;;;;;5096737;28;20416;-72
2021/01/02 07:34:22;;;;;;;7.22;2.05;;;5.00;94.50;;;;;;5096407;28;20024;-71
2021/01/02 07:36:48;;;;;;;5.30;1.42;;;5.00;94.40;;;;;;5096401;28;20020;-72
2021/01/02 07:39:17;;;;;;;5.43;1.42;;;5.10;94.10;;;;;;5096476;28;20462;-72
2021/01/02 07:41:44;;;;;;;1.38;0.70;;;5.20;93.20;;;;;;5078558;28;20024;-72
2021/01/02 07:44:11;;;;;;;3.42;0.55;;;5.20;92.40;;;;;;5096647;28;20049;-71
2021/01/02 07:46:45;;;;;;;2.60;0.60;;;5.30;91.10;;;;;;5096434;28;20020;-72
2021/01/02 07:49:11;;;;;;;2.83;1.10;;;5.30;92.40;;;;;;5078305;28;20044;-71
2021/01/02 07:51:38;;;;;;;3.50;1.48;;;5.30;92.00;;;;;;5078403;28;20417;-71
2021/01/02 07:54:04;;;;;;;0.98;0.20;;;5.20;90.10;;;;;;5096646;28;20067;-71
2021/01/02 07:56:34;;;;;;;5.70;1.35;;;5.10;90.00;;;;;;5096349;28;20354;-71
2021/01/02 07:59:24;;;;;;;0.55;0.35;;;5.10;89.70;;;;;;5098836;28;20024;-71
2021/01/02 08:02:04;;;;;;;1.42;0.40;;;5.10;89.90;;;;;;5085320;28;20111;-71
2021/01/02 08:04:31;;;;;;;0.88;0.30;;;5.20;89.70;;;;;;5099952;28;20370;-71
2021/01/02 08:07:01;;;;;;;3.72;0.40;;;5.30;91.10;;;;;;5100423;28;20084;-71
2021/01/02 08:09:29;;;;;;;1.85;0.50;;;5.30;91.50;;;;;;5099976;28;20069;-71
2021/01/02 08:12:02;;;;;;;1.88;0.50;;;5.30;90.20;;;;;;5081807;28;20035;-71
2021/01/02 08:14:31;;;;;;;5.50;2.30;;;5.30;90.20;;;;;;5099805;28;20112;-71
2021/01/02 08:17:07;;;;;;;5.30;1.00;;;5.30;89.80;;;;;;5099714;28;20028;-71
2021/01/02 08:19:48;;;;;;;4.47;0.80;;;5.20;91.80;;;;;;5099818;28;20095;-71
2021/01/02 08:22:30;;;;;;;2.65;0.70;;;5.10;93.80;;;;;;5099848;28;20028;-71
2021/01/02 08:25:01;;;;;;;1.95;0.55;;;5.00;93.50;;;;;;5099609;28;20115;-71
2021/01/02 08:27:29;;;;;;;6.70;1.00;;;4.90;93.20;;;;;;5099537;28;20431;-71
2021/01/02 08:29:55;;;;;;;3.78;0.93;;;5.00;90.60;;;;;;5099477;28;20016;-71
2021/01/02 08:32:26;;;;;;;1.08;0.40;;;5.10;93.30;;;;;;5099505;28;20105;-71
2021/01/02 08:34:52;;;;;;;0.50;0.20;;;5.10;93.90;;;;;;5099435;28;20024;-71
2021/01/02 08:37:19;;;;;;;1.80;0.40;;;5.30;88.40;;;;;;5099274;28;20055;-71
2021/01/02 08:39:45;;;;;;;2.10;0.70;;;5.40;89.10;;;;;;5099322;28;20089;-71
2021/01/02 08:42:12;;;;;;;1.90;0.88;;;5.50;92.70;;;;;;5099292;28;20028;-71
2021/01/02 08:44:44;;;;;;;4.93;1.30;;;5.40;92.80;;;;;;5099210;28;20031;-71
2021/01/02 08:47:10;;;;;;;3.42;1.00;;;5.30;93.70;;;;;;5099161;28;20070;-71
2021/01/02 08:49:44;;;;;;;3.97;1.02;;;5.10;93.60;;;;;;5099000;28;20051;-71
2021/01/02 08:52:26;;;;;;;3.42;1.17;;;5.00;94.20;;;;;;5099133;28;20028;-71
2021/01/02 08:54:54;;;;;;;2.55;1.30;;;4.80;95.40;;;;;;5099009;28;20032;-71
2021/01/02 08:57:28;;;;;;;4.15;1.50;;;4.80;95.20;;;;;;5098928;28;20047;-71
2021/01/02 09:00:08;;;;;;;2.05;1.20;;;4.50;94.10;;;;;;5081013;28;20061;-71
2021/01/02 09:02:34;;;;;;;3.03;1.08;;;4.50;94.90;;;;;;5098985;28;20062;-71
2021/01/02 09:05:16;;;;;;;1.92;1.02;;;4.40;95.00;;;;;;5080877;28;20017;-72
2021/01/02 09:08:08;;;;;;;2.22;1.15;;;4.40;95.30;;;;;;5099077;28;20031;-72
2021/01/02 09:10:42;;;;;;;3.20;0.60;;;4.40;95.90;;;;;;5098026;28;20035;-72
2021/01/02 09:13:23;;;;;;;3.97;1.10;;;4.50;95.30;;;;;;5098677;28;20308;-72
2021/01/02 09:16:06;;;;;;;1.77;0.50;;;4.60;95.50;;;;;;5098843;28;20062;-72
2021/01/02 09:18:32;;;;;;;3.00;1.75;;;4.70;95.30;;;;;;5098758;28;20028;-72
2021/01/02 09:21:09;;;;;;;1.67;0.30;;;4.70;95.60;;;;;;5098779;28;20050;-72
2021/01/02 09:23:39;;;;;;;0.90;0.47;;;4.70;95.70;;;;;;5098648;28;20042;-72
2021/01/02 09:26:21;;;;;;;0.98;0.50;;;4.70;95.60;;;;;;5098480;28;20016;-71
2021/01/02 09:28:48;;;;;;;1.20;0.38;;;4.70;93.60;;;;;;5098397;28;20048;-72
2021/01/02 09:31:14;;;;;;;0.88;0.50;;;4.80;93.50;;;;;;5098323;28;20031;-72
2021/01/02 09:33:40;;;;;;;2.60;0.57;;;4.70;93.40;;;;;;5080366;28;20028;-71
2021/01/02 09:36:06;;;;;;;1.33;0.43;;;4.80;93.30;;;;;;5098208;28;20400;-71
2021/01/02 09:38:31;;;;;;;1.35;0.38;;;4.80;92.90;;;;;;5098066;28;20086;-71
2021/01/02 09:40:57;;;;;;;0.50;0.30;;;4.80;92.30;;;;;;5098148;28;20028;-71
2021/01/02 09:43:23;;;;;;;1.25;0.20;;;4.80;92.90;;;;;;5098381;28;20388;-71
2021/01/02 09:45:49;;;;;;;0.85;0.40;;;4.70;92.90;;;;;;5080028;28;20048;-71
2021/01/02 09:48:17;;;;;;;0.60;0.20;;;4.80;92.30;;;;;;5079845;28;20078;-71
2021/01/02 09:50:43;;;;;;;1.63;0.20;;;4.80;90.50;;;;;;5098248;28;20104;-71
2021/01/02 09:53:11;;;;;;;1.70;0.20;;;4.90;91.30;;;;;;5098000;28;20043;-71
2021/01/02 09:55:37;;;;;;;0.85;0.20;;;4.90;91.90;;;;;;5097866;28;20024;-72
2021/01/02 09:58:03;;;;;;;0.52;0.20;;;4.80;91.90;;;;;;5097999;28;20043;-71
2021/01/02 10:00:30;;;;;;;0.20;0.10;;;4.80;91.90;;;;;;5098237;28;20436;-71
2021/01/02 10:02:56;;;;;;;0.30;0.10;;;4.80;92.00;;;;;;5097705;28;20024;-72
2021/01/02 10:05:23;;;;;;;1.67;0.20;;;4.70;93.10;;;;;;5097723;28;20016;-72
2021/01/02 10:07:48;;;;;;;1.70;0.57;;;4.70;93.20;;;;;;5095398;28;20370;-72
2021/01/02 10:10:15;;;;;;;0.20;0.10;;;4.70;95.40;;;;;;5088626;28;20024;-72
2021/01/02 10:12:42;;;;;;;0.10;0.10;;;4.70;92.20;;;;;;5059540;28;20052;-72
2021/01/02 10:15:09;;;;;;;0.10;0.10;;;4.70;92.70;;;;;;5059518;28;20028;-72
2021/01/02 10:17:35;;;;;;;0.10;0.10;;;4.80;91.90;;;;;;5077140;28;20094;-72
2021/01/02 10:20:00;;;;;;;0.10;0.10;;;4.80;92.20;;;;;;5059455;28;20048;-71
2021/01/02 10:22:26;;;;;;;0.00;0.00;;;4.90;91.30;;;;;;5059144;28;20423;-71
2021/01/02 10:24:53;;;;;;;0.10;0.10;;;4.90;91.60;;;;;;5077039;28;20028;-71
2021/01/02 10:27:20;;;;;;;0.10;0.10;;;4.90;91.70;;;;;;5077036;28;20029;-71
2021/01/02 10:29:48;;;;;;;0.10;0.10;;;5.00;91.00;;;;;;5059295;28;20108;-71
2021/01/02 10:32:16;;;;;;;0.75;0.10;;;5.00;90.40;;;;;;5076948;28;20032;-71
2021/01/02 10:34:45;;;;;;;0.10;0.10;;;5.10;90.50;;;;;;5077052;28;20052;-71
2021/01/02 10:37:11;;;;;;;0.13;0.10;;;5.20;91.50;;;;;;5059149;28;20363;-72
2021/01/02 10:39:38;;;;;;;0.10;0.10;;;5.20;93.30;;;;;;5077120;28;20025;-72
2021/01/02 10:42:04;;;;;;;0.10;0.10;;;5.20;94.30;;;;;;5076778;28;20030;-72
2021/01/02 10:44:30;;;;;;;0.22;0.20;;;5.10;95.30;;;;;;5077007;28;20040;-72
2021/01/02 10:46:56;;;;;;;0.32;0.30;;;5.20;94.60;;;;;;5076745;28;20098;-72
2021/01/02 10:49:23;;;;;;;0.52;0.20;;;5.20;93.20;;;;;;5076677;28;20048;-72
2021/01/02 10:51:49;;;;;;;0.25;0.10;;;5.20;93.90;;;;;;5076725;28;20025;-72
2021/01/02 10:54:18;;;;;;;0.52;0.20;;;5.30;93.70;;;;;;5077041;28;20416;-73
2021/01/02 10:56:52;;;;;;;0.10;0.10;;;5.40;92.30;;;;;;5076916;28;20320;-73
2021/01/02 10:59:20;;;;;;;1.42;0.40;;;5.30;91.50;;;;;;5076745;28;20020;-72
2021/01/02 11:01:48;;;;;;;1.27;0.70;;;5.30;91.60;;;;;;5076637;28;20020;-72
2021/01/02 11:04:15;;;;;;;1.30;0.50;;;5.30;91.80;;;;;;5058858;28;20385;-73
2021/01/02 11:06:42;;;;;;;0.30;0.17;;;5.30;92.20;;;;;;5076633;28;20035;-73
2021/01/02 11:09:11;;;;;;;2.35;0.65;;;5.20;92.10;;;;;;5058835;28;20024;-73
2021/01/02 11:11:37;;;;;;;0.63;0.30;;;5.20;91.10;;;;;;5076555;28;20021;-72
2021/01/02 11:14:03;;;;;;;0.32;0.20;;;5.10;93.70;;;;;;5076600;28;20025;-72
2021/01/02 11:16:40;;;;;;;1.00;0.20;;;5.00;94.90;;;;;;5076442;28;20028;-72
2021/01/02 11:19:23;;;;;;;1.42;0.10;;;4.90;94.90;;;;;;5076675;28;20017;-72
2021/01/02 11:21:52;;;;;;;1.75;0.10;;;4.90;94.20;;;;;;5076675;28;20359;-72
2021/01/02 11:24:24;;;;;;;0.38;0.15;;;4.80;93.50;;;;;;5076784;28;20029;-72
2021/01/02 11:26:52;;;;;;;0.10;0.10;;;4.80;93.90;;;;;;5076712;28;20066;-72
2021/01/02 11:29:21;;;;;;;0.10;0.10;;;4.90;92.80;;;;;;5076346;28;20039;-73
2021/01/02 11:31:47;;;;;;;0.10;0.10;;;4.90;91.40;;;;;;5076379;28;20142;-72
2021/01/02 11:34:13;;;;;;;0.10;0.10;;;4.70;91.00;;;;;;5079446;28;20053;-72
2021/01/02 11:36:40;;;;;;;0.10;0.10;;;4.60;90.90;;;;;;5080293;28;20021;-72
2021/01/02 11:39:07;;;;;;;0.30;0.17;;;4.50;91.20;;;;;;5080179;28;20033;-73
2021/01/02 11:41:39;;;;;;;0.25;0.10;;;4.50;94.00;;;;;;5080180;28;20035;-73
2021/01/02 11:44:07;;;;;;;0.17;0.10;;;4.60;94.60;;;;;;5080220;28;20435;-73
2021/01/02 11:46:43;;;;;;;0.20;0.10;;;4.60;94.50;;;;;;5062367;28;20024;-73
2021/01/02 11:49:11;;;;;;;0.10;0.10;;;4.70;95.50;;;;;;5080092;28;20055;-73
2021/01/02 11:51:37;;;;;;;0.17;0.17;;;4.80;95.60;;;;;;5080222;28;20104;-73
2021/01/02 11:54:04;;;;;;;0.10;0.10;;;4.90;95.80;;;;;;5080155;28;20036;-73
2021/01/02 11:56:30;;;;;;;0.20;0.10;;;5.00;96.00;;;;;;5079829;28;20086;-73
2021/01/02 11:58:57;;;;;;;0.10;0.10;;;5.00;96.10;;;;;;5079784;28;20032;-73
2021/01/02 12:01:33;;;;;;;0.10;0.10;;;5.10;95.90;;;;;;5062063;28;20021;-72
2021/01/02 12:03:58;;;;;;;0.20;0.10;;;5.10;96.30;;;;;;5062041;28;20031;-73
2021/01/02 12:06:29;;;;;;;0.10;0.10;;;5.10;96.30;;;;;;5079723;28;20017;-73
2021/01/02 12:08:56;;;;;;;0.40;0.30;;;5.20;96.10;;;;;;5079981;28;20316;-73
2021/01/02 12:11:27;;;;;;;0.22;0.10;;;5.10;96.20;;;;;;5061869;28;20112;-73
2021/01/02 12:13:54;;;;;;;0.68;0.10;;;5.20;96.00;;;;;;5079748;28;20029;-73
2021/01/02 12:16:19;;;;;;;0.10;0.10;;;5.20;95.10;;;;;;5079500;28;20107;-73
2021/01/02 12:18:45;;;;;;;0.10;0.10;;;5.10;92.80;;;;;;5061664;28;20119;-72
2021/01/02 12:21:17;;;;;;;0.10;0.10;;;5.00;92.30;;;;;;5062003;28;20085;-72
2021/01/02 12:23:43;;;;;;;0.25;0.10;;;5.00;91.60;;;;;;5061745;28;20024;-72
2021/01/02 12:26:09;;;;;;;0.10;0.10;;;4.80;92.00;;;;;;5079211;28;20024;-72
2021/01/02 12:28:35;;;;;;;0.10;0.10;;;4.80;91.60;;;;;;5079471;28;20036;-72
2021/01/02 12:31:00;;;;;;;0.00;0.00;;;4.70;91.70;;;;;;5079268;28;20139;-72
2021/01/02 12:33:26;;;;;;;0.10;0.10;;;4.70;91.30;;;;;;5079218;28;20083;-72
2021/01/02 12:35:51;;;;;;;0.10;0.10;;;4.70;90.40;;;;;;5079359;28;20074;-72
2021/01/02 12:38:17;;;;;;;0.35;0.10;;;4.80;93.50;;;;;;5061288;28;20404;-72
2021/01/02 12:40:42;;;;;;;0.10;0.10;;;4.90;94.20;;;;;;5079111;28;20021;-72
2021/01/02 12:43:08;;;;;;;0.10;0.10;;;5.00;93.00;;;;;;5079260;28;20047;-72
2021/01/02 12:45:34;;;;;;;0.15;0.10;;;5.10;93.20;;;;;;5079203;28;20016;-72
2021/01/02 12:47:59;;;;;;;2.28;0.20;;;5.10;94.30;;;;;;5061236;28;20337;-73
2021/01/02 12:50:25;;;;;;;1.85;0.20;;;5.10;95.10;;;;;;5078700;28;20338;-73
2021/01/02 12:52:50;;;;;;;0.10;0.10;;;5.10;95.40;;;;;;5078750;28;20111;-72
2021/01/02 12:55:16;;;;;;;1.23;0.20;;;5.10;92.70;;;;;;5078759;28;20028;-73
2021/01/02 12:57:42;;;;;;;0.32;0.10;;;5.10;93.00;;;;;;5078736;28;20036;-72
2021/01/02 13:00:08;;;;;;;0.10;0.10;;;5.00;90.80;;;;;;5060998;28;20025;-72
2021/01/02 13:02:33;;;;;;;0.10;0.10;;;4.90;91.40;;;;;;5078788;28;20021;-72
2021/01/02 13:05:01;;;;;;;0.10;0.10;;;4.90;90.40;;;;;;5078920;28;20021;-72
2021/01/02 13:07:26;;;;;;;0.10;0.10;;;4.80;91.30;;;;;;5078548;28;20028;-72
2021/01/02 13:09:52;;;;;;;0.55;0.10;;;4.70;91.40;;;;;;5078529;28;20070;-72
2021/01/02 13:12:19;;;;;;;0.10;0.10;;;4.70;91.70;;;;;;5060822;28;20029;-72
2021/01/02 13:14:44;;;;;;;0.32;0.13;;;4.70;91.90;;;;;;5078452;28;20020;-72